»·PEaware :: SKY123 KPRC-KHII

SKY123 :: KPRC-KHII

FLIGHT INFORMATION

Flight Status: Arrived
Operator:
Sky High Charters
More flights by this operator :: More flights under this callsign
Pilot: Keith G. (35160)
Aircraft: CESSNA 208 CARAVAN
(C208)
More flights by this aircraft type
Origin: KPRC Love
United States
Destination: KHII Lake Havasu City
United States
More flights between these airports :: More routes between these airports
Route: WNSKI2 MUMTE V12 EED
File this flight plan on PilotEdge
Remarks:
Altitude:
(Current/Filed)
10,000ft
Speed:
(Current/Filed)
160kts
Departed: 18-May-23 08:16 AM
Arrived: 18-May-23 09:18 AM
Distance/Time
Traveled:
96nm/1:01
Distance/Time
To Go:
Arrived

Flight Plot

Page will automatically refresh every two minutes.

Flight plan parsing failed; only flown route is shown


Map Options




Map Legend


Flown Route
Filed Route
Departure Airport
Arrival Airport
Navaid (VOR, NDB)
Fix

Horizontal Profiles

Position Reports

Time Latitude Longitude Heading Altitude Ground
Speed
18-May-23 08:02 34.646793 -112.425202 13 5027ft 0kts
18-May-23 08:03 34.646793 -112.425202 13 5027ft 0kts
18-May-23 08:04 34.646793 -112.425202 13 5027ft 0kts
18-May-23 08:05 34.646793 -112.425202 13 5027ft 0kts
18-May-23 08:06 34.646793 -112.425202 13 5027ft 0kts
18-May-23 08:07 34.646793 -112.425202 13 5027ft 0kts
18-May-23 08:08 34.650553 -112.421895 40 5024ft 36kts
18-May-23 08:09 34.657594 -112.414438 40 4989ft 31kts
18-May-23 08:10 34.660972 -112.409697 327 4963ft 0kts
18-May-23 08:11 34.660972 -112.409697 327 4963ft 0kts
18-May-23 08:12 34.660972 -112.409697 327 4963ft 0kts
18-May-23 08:13 34.660972 -112.409697 327 4963ft 0kts
18-May-23 08:14 34.661559 -112.410545 309 4963ft 0kts
18-May-23 08:15 34.660385 -112.413265 221 4975ft 69kts
18-May-23 08:16 34.636045 -112.432064 159 6629ft 106kts
18-May-23 08:17 34.639360 -112.398815 50 8325ft 112kts
18-May-23 08:18 34.622981 -112.364926 130 9693ft 137kts
18-May-23 08:19 34.594928 -112.329375 131 10243ft 160kts
18-May-23 08:20 34.565717 -112.285283 129 10105ft 173kts
18-May-23 08:21 34.529649 -112.252231 200 10079ft 165kts
18-May-23 08:22 34.499996 -112.289676 255 10090ft 153kts
18-May-23 08:23 34.480772 -112.336803 237 10089ft 162kts
18-May-23 08:24 34.461364 -112.384860 258 10085ft 158kts
18-May-23 08:25 34.454670 -112.438211 259 10068ft 162kts
18-May-23 08:26 34.446113 -112.490625 279 10051ft 154kts
18-May-23 08:27 34.453229 -112.541275 288 10049ft 153kts
18-May-23 08:28 34.467659 -112.589927 302 10050ft 155kts
18-May-23 08:29 34.488166 -112.635821 294 10042ft 157kts
18-May-23 08:30 34.510845 -112.680634 315 10029ft 155kts
18-May-23 08:31 34.542505 -112.715858 322 10016ft 153kts
18-May-23 08:32 34.578263 -112.744009 329 10017ft 153kts
18-May-23 08:33 34.617008 -112.766080 341 10005ft 154kts
18-May-23 08:34 34.658552 -112.777807 347 10002ft 153kts
18-May-23 08:35 34.694594 -112.798683 301 9978ft 154kts
18-May-23 08:36 34.711144 -112.847008 282 9944ft 158kts
18-May-23 08:37 34.717495 -112.899927 280 9941ft 161kts
18-May-23 08:38 34.720223 -112.954111 276 9938ft 161kts
18-May-23 08:39 34.722393 -113.008244 276 9926ft 160kts
18-May-23 08:40 34.724560 -113.062207 276 9987ft 157kts
18-May-23 08:41 34.726433 -113.115280 276 9985ft 157kts
18-May-23 08:42 34.728256 -113.168475 276 9982ft 158kts
18-May-23 08:43 34.730066 -113.222048 276 9980ft 158kts
18-May-23 08:44 34.731887 -113.276028 276 9979ft 160kts
18-May-23 08:45 34.733846 -113.333783 275 9984ft 176kts
18-May-23 08:46 34.735805 -113.393641 276 9976ft 178kts
18-May-23 08:47 34.737737 -113.453491 275 9965ft 178kts
18-May-23 08:48 34.739638 -113.513622 275 9964ft 178kts
18-May-23 08:49 34.741552 -113.574143 272 10217ft 181kts
18-May-23 08:50 34.743389 -113.634551 272 10065ft 175kts
18-May-23 08:51 34.745180 -113.693627 272 10061ft 174kts
18-May-23 08:52 34.746918 -113.752317 272 10058ft 174kts
18-May-23 08:53 34.748633 -113.810925 272 10058ft 173kts
18-May-23 08:54 34.750325 -113.869547 272 10062ft 175kts
18-May-23 08:55 34.752006 -113.928791 272 10065ft 175kts
18-May-23 08:56 34.753650 -113.987957 272 10063ft 174kts
18-May-23 08:57 34.755268 -114.046759 272 10062ft 174kts
18-May-23 08:58 34.756850 -114.105571 272 10062ft 174kts
18-May-23 08:59 34.758407 -114.164474 272 10062ft 174kts
18-May-23 09:00 34.759934 -114.223400 272 10061ft 174kts
18-May-23 09:01 34.761431 -114.282099 271 10060ft 173kts
18-May-23 09:02 34.762888 -114.340753 272 10060ft 173kts
18-May-23 09:03 34.764209 -114.395658 271 10056ft 146kts
18-May-23 09:04 34.765490 -114.442924 272 10054ft 131kts
18-May-23 09:05 34.767757 -114.485561 289 10052ft 121kts
18-May-23 09:06 34.791980 -114.510950 345 9393ft 124kts
18-May-23 09:07 34.828626 -114.519630 346 7961ft 140kts
18-May-23 09:09 34.857258 -114.504310 107 6693ft 140kts
18-May-23 09:10 34.822395 -114.487655 172 6026ft 149kts
18-May-23 09:11 34.781598 -114.477958 172 5234ft 149kts
18-May-23 09:12 34.743741 -114.465435 165 4778ft 143kts
18-May-23 09:13 34.705444 -114.450309 163 3904ft 137kts
18-May-23 09:14 34.669730 -114.432163 151 3410ft 140kts
18-May-23 09:15 34.640485 -114.408894 146 2989ft 110kts
18-May-23 09:16 34.614606 -114.389812 153 2014ft 110kts
18-May-23 09:17 34.589710 -114.371527 149 1078ft 89kts
18-May-23 09:18 34.575055 -114.362378 198 765ft 13kts

Navigation Log

Ident Type
Flight plan parsing failed, navigation log unavailable